sensor_id;sensor_type;location;lat;lon;timestamp;pressure;altitude;pressure_sealevel;temperature;humidity
44988;BME280;35735;52.226;21.254;2022-09-21T00:04:32;100477.81;;;9.35;100.00
44988;BME280;35735;52.226;21.254;2022-09-21T00:09:32;100478.72;;;9.35;100.00
44988;BME280;35735;52.226;21.254;2022-09-21T00:14:33;100475.19;;;9.44;100.00
44988;BME280;35735;52.226;21.254;2022-09-21T00:19:33;100476.94;;;9.40;100.00
44988;BME280;35735;52.226;21.254;2022-09-21T00:24:34;100470.66;;;9.40;100.00
44988;BME280;35735;52.226;21.254;2022-09-21T00:29:34;100476.06;;;9.40;100.00
44988;BME280;35735;52.226;21.254;2022-09-21T00:34:35;100476.94;;;9.37;100.00
44988;BME280;35735;52.226;21.254;2022-09-21T00:39:35;100471.56;;;9.36;100.00
44988;BME280;35735;52.226;21.254;2022-09-21T00:44:36;100478.78;;;9.44;100.00
44988;BME280;35735;52.226;21.254;2022-09-21T00:49:37;100480.59;;;9.45;100.00
44988;BME280;35735;52.226;21.254;2022-09-21T00:54:44;100478.81;;;9.48;100.00
44988;BME280;35735;52.226;21.254;2022-09-21T00:59:50;100477.87;;;9.47;100.00
44988;BME280;35735;52.226;21.254;2022-09-21T01:04:53;100482.41;;;9.50;100.00
44988;BME280;35735;52.226;21.254;2022-09-21T01:09:56;100482.41;;;9.53;100.00
44988;BME280;35735;52.226;21.254;2022-09-21T01:15:10;100481.53;;;9.52;100.00
44988;BME280;35735;52.226;21.254;2022-09-21T01:20:38;100478.84;;;9.60;100.00
44988;BME280;35735;52.226;21.254;2022-09-21T01:30:51;100484.28;;;9.64;100.00
44988;BME280;35735;52.226;21.254;2022-09-21T01:35:59;100487.87;;;9.70;100.00
44988;BME280;35735;52.226;21.254;2022-09-21T01:41:05;100491.47;;;9.70;100.00
44988;BME280;35735;52.226;21.254;2022-09-21T01:46:12;100493.25;;;9.65;100.00
44988;BME280;35735;52.226;21.254;2022-09-21T01:51:18;100495.03;;;9.60;100.00
44988;BME280;35735;52.226;21.254;2022-09-21T01:56:25;100492.34;;;9.61;100.00
44988;BME280;35735;52.226;21.254;2022-09-21T02:01:31;100506.75;;;9.68;100.00
44988;BME280;35735;52.226;21.254;2022-09-21T02:06:39;100510.31;;;9.69;100.00
44988;BME280;35735;52.226;21.254;2022-09-21T02:11:40;100511.28;;;9.72;100.00
44988;BME280;35735;52.226;21.254;2022-09-21T02:22:08;100515.78;;;9.78;100.00
44988;BME280;35735;52.226;21.254;2022-09-21T02:33:07;100504.09;;;9.83;100.00
44988;BME280;35735;52.226;21.254;2022-09-21T02:38:38;100503.25;;;9.91;100.00
44988;BME280;35735;52.226;21.254;2022-09-21T02:44:01;100505.06;;;9.93;100.00
44988;BME280;35735;52.226;21.254;2022-09-21T02:49:12;100515.84;;;9.95;100.00
44988;BME280;35735;52.226;21.254;2022-09-21T02:54:24;100521.22;;;9.92;100.00
44988;BME280;35735;52.226;21.254;2022-09-21T02:59:26;100532.94;;;9.97;100.00
44988;BME280;35735;52.226;21.254;2022-09-21T03:04:27;100524.84;;;10.00;100.00
44988;BME280;35735;52.226;21.254;2022-09-21T03:09:28;100532.94;;;9.97;100.00
44988;BME280;35735;52.226;21.254;2022-09-21T03:14:28;100532.06;;;10.01;100.00
44988;BME280;35735;52.226;21.254;2022-09-21T03:19:29;100536.56;;;10.05;100.00
44988;BME280;35735;52.226;21.254;2022-09-21T03:24:29;100537.47;;;10.09;100.00
44988;BME280;35735;52.226;21.254;2022-09-21T03:29:30;100540.19;;;10.13;100.00
44988;BME280;35735;52.226;21.254;2022-09-21T03:34:30;100534.81;;;10.16;100.00
44988;BME280;35735;52.226;21.254;2022-09-21T03:39:31;100541.13;;;10.22;100.00
44988;BME280;35735;52.226;21.254;2022-09-21T03:44:31;100547.41;;;10.17;100.00
44988;BME280;35735;52.226;21.254;2022-09-21T03:49:32;100550.09;;;10.17;100.00
44988;BME280;35735;52.226;21.254;2022-09-21T03:54:33;100551.00;;;10.16;100.00
44988;BME280;35735;52.226;21.254;2022-09-21T03:59:33;100557.28;;;10.20;100.00
44988;BME280;35735;52.226;21.254;2022-09-21T04:04:34;100551.00;;;10.19;100.00
44988;BME280;35735;52.226;21.254;2022-09-21T04:09:34;100555.50;;;10.24;100.00
44988;BME280;35735;52.226;21.254;2022-09-21T04:14:35;100563.63;;;10.27;100.00
44988;BME280;35735;52.226;21.254;2022-09-21T04:19:35;100564.50;;;10.29;100.00
44988;BME280;35735;52.226;21.254;2022-09-21T04:24:36;100569.94;;;10.32;100.00
44988;BME280;35735;52.226;21.254;2022-09-21T04:29:37;100573.59;;;10.40;100.00
44988;BME280;35735;52.226;21.254;2022-09-21T04:34:38;100571.78;;;10.41;100.00
44988;BME280;35735;52.226;21.254;2022-09-21T04:39:38;100576.28;;;10.43;100.00
44988;BME280;35735;52.226;21.254;2022-09-21T04:44:39;100579.00;;;10.46;100.00
44988;BME280;35735;52.226;21.254;2022-09-21T04:49:40;100583.50;;;10.50;100.00
44988;BME280;35735;52.226;21.254;2022-09-21T04:54:40;100583.53;;;10.56;100.00
44988;BME280;35735;52.226;21.254;2022-09-21T04:59:41;100581.72;;;10.57;100.00
44988;BME280;35735;52.226;21.254;2022-09-21T05:04:41;100595.22;;;10.55;100.00
44988;BME280;35735;52.226;21.254;2022-09-21T05:09:42;100594.34;;;10.60;100.00
44988;BME280;35735;52.226;21.254;2022-09-21T05:14:42;100604.22;;;10.56;100.00
44988;BME280;35735;52.226;21.254;2022-09-21T05:19:43;100604.22;;;10.62;100.00
44988;BME280;35735;52.226;21.254;2022-09-21T05:24:44;100607.84;;;10.70;100.00
44988;BME280;35735;52.226;21.254;2022-09-21T05:29:44;100608.78;;;10.71;100.00
44988;BME280;35735;52.226;21.254;2022-09-21T05:35:04;100619.56;;;10.74;100.00
44988;BME280;35735;52.226;21.254;2022-09-21T05:40:11;100619.56;;;10.80;100.00
44988;BME280;35735;52.226;21.254;2022-09-21T05:45:14;100623.16;;;10.82;100.00
44988;BME280;35735;52.226;21.254;2022-09-21T05:50:39;100642.09;;;10.90;100.00
44988;BME280;35735;52.226;21.254;2022-09-21T05:56:02;100631.31;;;10.91;100.00
44988;BME280;35735;52.226;21.254;2022-09-21T06:06:39;100633.09;;;10.96;100.00
44988;BME280;35735;52.226;21.254;2022-09-21T06:11:39;100630.41;;;10.99;100.00
44988;BME280;35735;52.226;21.254;2022-09-21T06:16:41;100640.31;;;11.06;100.00
44988;BME280;35735;52.226;21.254;2022-09-21T06:21:42;100642.12;;;11.02;100.00
44988;BME280;35735;52.226;21.254;2022-09-21T06:26:42;100640.31;;;10.98;100.00
44988;BME280;35735;52.226;21.254;2022-09-21T06:31:43;100640.34;;;11.03;100.00
44988;BME280;35735;52.226;21.254;2022-09-21T06:36:43;100652.94;;;11.07;100.00
44988;BME280;35735;52.226;21.254;2022-09-21T06:41:44;100652.03;;;11.14;100.00
44988;BME280;35735;52.226;21.254;2022-09-21T06:46:44;100660.16;;;11.22;100.00
44988;BME280;35735;52.226;21.254;2022-09-21T06:51:46;100665.56;;;11.23;100.00
44988;BME280;35735;52.226;21.254;2022-09-21T06:56:47;100670.97;;;11.20;100.00
44988;BME280;35735;52.226;21.254;2022-09-21T07:01:48;100675.47;;;11.18;100.00
44988;BME280;35735;52.226;21.254;2022-09-21T07:06:49;100679.09;;;11.23;100.00
44988;BME280;35735;52.226;21.254;2022-09-21T07:11:49;100679.97;;;11.27;100.00
44988;BME280;35735;52.226;21.254;2022-09-21T07:16:51;100679.09;;;11.28;100.00
44988;BME280;35735;52.226;21.254;2022-09-21T07:21:53;100680.87;;;11.27;100.00
44988;BME280;35735;52.226;21.254;2022-09-21T07:26:54;100681.78;;;11.26;100.00
44988;BME280;35735;52.226;21.254;2022-09-21T07:31:54;100673.69;;;11.26;100.00
44988;BME280;35735;52.226;21.254;2022-09-21T07:36:55;100689.88;;;11.34;100.00
44988;BME280;35735;52.226;21.254;2022-09-21T07:41:55;100696.19;;;11.42;100.00
44988;BME280;35735;52.226;21.254;2022-09-21T07:46:56;100697.09;;;11.49;100.00
44988;BME280;35735;52.226;21.254;2022-09-21T07:51:56;100699.84;;;11.61;100.00
44988;BME280;35735;52.226;21.254;2022-09-21T07:56:57;100695.31;;;11.77;100.00
44988;BME280;35735;52.226;21.254;2022-09-21T08:01:58;100707.03;;;11.85;100.00
44988;BME280;35735;52.226;21.254;2022-09-21T08:06:58;100698.03;;;11.99;100.00
44988;BME280;35735;52.226;21.254;2022-09-21T08:11:59;100696.22;;;12.04;100.00
44988;BME280;35735;52.226;21.254;2022-09-21T08:17:01;100706.16;;;12.03;100.00
44988;BME280;35735;52.226;21.254;2022-09-21T08:22:01;100711.56;;;12.07;100.00
44988;BME280;35735;52.226;21.254;2022-09-21T08:27:02;100718.75;;;12.11;100.00
44988;BME280;35735;52.226;21.254;2022-09-21T08:32:03;100712.44;;;12.13;100.00
44988;BME280;35735;52.226;21.254;2022-09-21T08:37:03;100718.75;;;12.17;100.00
44988;BME280;35735;52.226;21.254;2022-09-21T08:42:17;100726.88;;;12.12;100.00
44988;BME280;35735;52.226;21.254;2022-09-21T08:47:45;100720.56;;;12.18;100.00
44988;BME280;35735;52.226;21.254;2022-09-21T08:52:57;100725.94;;;12.24;100.00
44988;BME280;35735;52.226;21.254;2022-09-21T08:58:00;100722.31;;;12.33;100.00
44988;BME280;35735;52.226;21.254;2022-09-21T09:19:08;100734.00;;;12.52;100.00
44988;BME280;35735;52.226;21.254;2022-09-21T09:24:35;100739.44;;;12.50;100.00
44988;BME280;35735;52.226;21.254;2022-09-21T09:29:46;100739.44;;;12.46;100.00
44988;BME280;35735;52.226;21.254;2022-09-21T09:35:14;100743.03;;;12.51;100.00
44988;BME280;35735;52.226;21.254;2022-09-21T09:51:42;100736.66;;;12.64;100.00
44988;BME280;35735;52.226;21.254;2022-09-21T09:56:43;100738.41;;;12.79;100.00
44988;BME280;35735;52.226;21.254;2022-09-21T10:01:45;100740.16;;;12.91;100.00
44988;BME280;35735;52.226;21.254;2022-09-21T10:06:46;100736.56;;;12.95;100.00
44988;BME280;35735;52.226;21.254;2022-09-21T10:11:47;100738.31;;;12.99;100.00
44988;BME280;35735;52.226;21.254;2022-09-21T10:16:49;100731.06;;;13.04;100.00
44988;BME280;35735;52.226;21.254;2022-09-21T10:21:56;100733.75;;;13.13;100.00
44988;BME280;35735;52.226;21.254;2022-09-21T10:27:14;100733.75;;;13.16;100.00
44988;BME280;35735;52.226;21.254;2022-09-21T10:37:27;100729.00;;;13.52;100.00
44988;BME280;35735;52.226;21.254;2022-09-21T10:42:37;100730.72;;;13.66;100.00
44988;BME280;35735;52.226;21.254;2022-09-21T10:47:43;100733.44;;;13.66;100.00
44988;BME280;35735;52.226;21.254;2022-09-21T10:52:47;100731.56;;;13.73;100.00
44988;BME280;35735;52.226;21.254;2022-09-21T10:57:49;100735.22;;;13.70;100.00
44988;BME280;35735;52.226;21.254;2022-09-21T11:02:51;100743.41;;;13.64;100.00
44988;BME280;35735;52.226;21.254;2022-09-21T11:07:57;100741.66;;;13.53;100.00
44988;BME280;35735;52.226;21.254;2022-09-21T11:24:05;100730.72;;;13.64;100.00
44988;BME280;35735;52.226;21.254;2022-09-21T11:29:21;100735.16;;;13.75;100.00
44988;BME280;35735;52.226;21.254;2022-09-21T11:34:45;100721.53;;;13.82;100.00
44988;BME280;35735;52.226;21.254;2022-09-21T11:57:19;100694.63;;;14.49;100.00
44988;BME280;35735;52.226;21.254;2022-09-21T12:08:18;100704.59;;;14.50;100.00
44988;BME280;35735;52.226;21.254;2022-09-21T12:13:39;100713.62;;;14.49;100.00
44988;BME280;35735;52.226;21.254;2022-09-21T12:19:16;100702.72;;;14.55;100.00
44988;BME280;35735;52.226;21.254;2022-09-21T12:24:22;100697.28;;;14.55;100.00
44988;BME280;35735;52.226;21.254;2022-09-21T12:29:32;100686.41;;;14.55;100.00
44988;BME280;35735;52.226;21.254;2022-09-21T12:34:45;100678.09;;;14.71;100.00
44988;BME280;35735;52.226;21.254;2022-09-21T12:40:02;100668.03;;;14.79;100.00
44988;BME280;35735;52.226;21.254;2022-09-21T12:45:31;100669.78;;;14.83;100.00
44988;BME280;35735;52.226;21.254;2022-09-21T12:50:57;100671.63;;;14.81;100.00
44988;BME280;35735;52.226;21.254;2022-09-21T13:07:27;100671.41;;;14.95;100.00
44988;BME280;35735;52.226;21.254;2022-09-21T13:12:37;100675.88;;;15.00;100.00
44988;BME280;35735;52.226;21.254;2022-09-21T13:17:39;100665.06;;;14.97;100.00
44988;BME280;35735;52.226;21.254;2022-09-21T13:22:40;100665.09;;;14.94;100.00
44988;BME280;35735;52.226;21.254;2022-09-21T13:48:58;100673.25;;;14.94;100.00
44988;BME280;35735;52.226;21.254;2022-09-21T13:54:12;100674.22;;;14.90;99.22
44988;BME280;35735;52.226;21.254;2022-09-21T13:59:21;100664.25;;;14.89;98.33
44988;BME280;35735;52.226;21.254;2022-09-21T14:04:27;100663.38;;;14.87;97.87
44988;BME280;35735;52.226;21.254;2022-09-21T14:09:39;100671.53;;;14.87;98.09
44988;BME280;35735;52.226;21.254;2022-09-21T14:20:32;100662.44;;;14.88;100.00
44988;BME280;35735;52.226;21.254;2022-09-21T14:25:47;100674.37;;;14.78;100.00
44988;BME280;35735;52.226;21.254;2022-09-21T14:30:55;100677.13;;;14.75;100.00
44988;BME280;35735;52.226;21.254;2022-09-21T14:35:59;100677.22;;;14.69;100.00
44988;BME280;35735;52.226;21.254;2022-09-21T14:41:06;100680.91;;;14.61;100.00
44988;BME280;35735;52.226;21.254;2022-09-21T14:46:42;100670.06;;;14.58;100.00
44988;BME280;35735;52.226;21.254;2022-09-21T14:52:16;100678.31;;;14.51;100.00
44988;BME280;35735;52.226;21.254;2022-09-21T15:02:43;100675.69;;;14.40;100.00
44988;BME280;35735;52.226;21.254;2022-09-21T15:08:11;100673.97;;;14.36;100.00
44988;BME280;35735;52.226;21.254;2022-09-21T15:13:41;100679.41;;;14.33;100.00
44988;BME280;35735;52.226;21.254;2022-09-21T15:18:48;100677.56;;;14.35;100.00
44988;BME280;35735;52.226;21.254;2022-09-21T15:23:49;100678.50;;;14.35;100.00
44988;BME280;35735;52.226;21.254;2022-09-21T15:28:53;100679.34;;;14.39;100.00
44988;BME280;35735;52.226;21.254;2022-09-21T15:33:55;100684.81;;;14.37;100.00
44988;BME280;35735;52.226;21.254;2022-09-21T15:38:56;100689.38;;;14.35;100.00
44988;BME280;35735;52.226;21.254;2022-09-21T15:44:05;100690.31;;;14.30;100.00
44988;BME280;35735;52.226;21.254;2022-09-21T15:49:13;100698.47;;;14.28;100.00
44988;BME280;35735;52.226;21.254;2022-09-21T15:54:25;100699.41;;;14.25;100.00
44988;BME280;35735;52.226;21.254;2022-09-21T15:59:29;100698.53;;;14.23;100.00
44988;BME280;35735;52.226;21.254;2022-09-21T16:04:29;100697.69;;;14.18;100.00
44988;BME280;35735;52.226;21.254;2022-09-21T16:09:44;100699.47;;;14.21;100.00
44988;BME280;35735;52.226;21.254;2022-09-21T16:14:48;100724.84;;;14.18;100.00
44988;BME280;35735;52.226;21.254;2022-09-21T16:24:51;100742.59;;;13.46;100.00
44988;BME280;35735;52.226;21.254;2022-09-21T16:29:55;100737.31;;;13.22;100.00
44988;BME280;35735;52.226;21.254;2022-09-21T16:35:23;100744.63;;;13.06;100.00
44988;BME280;35735;52.226;21.254;2022-09-21T16:40:27;100737.44;;;13.02;100.00
44988;BME280;35735;52.226;21.254;2022-09-21T16:45:29;100746.47;;;12.94;100.00
44988;BME280;35735;52.226;21.254;2022-09-21T16:50:30;100746.50;;;12.90;100.00
44988;BME280;35735;52.226;21.254;2022-09-21T16:55:31;100751.06;;;12.80;100.00
44988;BME280;35735;52.226;21.254;2022-09-21T17:00:38;100754.72;;;12.68;100.00
44988;BME280;35735;52.226;21.254;2022-09-21T17:05:39;100762.87;;;12.59;100.00
44988;BME280;35735;52.226;21.254;2022-09-21T17:10:42;100769.22;;;12.49;100.00
44988;BME280;35735;52.226;21.254;2022-09-21T17:15:46;100762.91;;;12.37;100.00
44988;BME280;35735;52.226;21.254;2022-09-21T17:20:47;100763.84;;;12.32;100.00
44988;BME280;35735;52.226;21.254;2022-09-21T17:25:47;100766.53;;;12.29;100.00
44988;BME280;35735;52.226;21.254;2022-09-21T17:30:48;100773.78;;;12.20;100.00
44988;BME280;35735;52.226;21.254;2022-09-21T17:35:48;100771.06;;;12.13;100.00
44988;BME280;35735;52.226;21.254;2022-09-21T17:40:49;100775.56;;;12.09;100.00
44988;BME280;35735;52.226;21.254;2022-09-21T17:46:01;100771.09;;;12.10;100.00
44988;BME280;35735;52.226;21.254;2022-09-21T17:51:06;100785.50;;;12.05;100.00
44988;BME280;35735;52.226;21.254;2022-09-21T18:01:37;100784.62;;;11.91;100.00
44988;BME280;35735;52.226;21.254;2022-09-21T18:06:38;100793.59;;;11.78;100.00
44988;BME280;35735;52.226;21.254;2022-09-21T18:17:36;100799.87;;;11.58;100.00
44988;BME280;35735;52.226;21.254;2022-09-21T18:23:36;100800.75;;;11.46;100.00
44988;BME280;35735;52.226;21.254;2022-09-21T18:29:00;100798.00;;;11.37;100.00
44988;BME280;35735;52.226;21.254;2022-09-21T18:49:51;100812.31;;;11.07;100.00
44988;BME280;35735;52.226;21.254;2022-09-21T18:54:55;100808.69;;;11.02;100.00
44988;BME280;35735;52.226;21.254;2022-09-21T18:59:57;100810.47;;;10.98;100.00
44988;BME280;35735;52.226;21.254;2022-09-21T19:04:58;100806.87;;;10.93;100.00
44988;BME280;35735;52.226;21.254;2022-09-21T19:10:27;100802.34;;;10.90;100.00
44988;BME280;35735;52.226;21.254;2022-09-21T19:26:23;100809.47;;;10.74;100.00
44988;BME280;35735;52.226;21.254;2022-09-21T19:31:27;100807.59;;;10.67;100.00
44988;BME280;35735;52.226;21.254;2022-09-21T19:36:28;100810.28;;;10.58;100.00
44988;BME280;35735;52.226;21.254;2022-09-21T19:41:39;100803.97;;;10.56;100.00
44988;BME280;35735;52.226;21.254;2022-09-21T19:46:58;100798.53;;;10.50;100.00
44988;BME280;35735;52.226;21.254;2022-09-21T19:52:03;100804.81;;;10.52;100.00
44988;BME280;35735;52.226;21.254;2022-09-21T19:57:16;100810.25;;;10.56;100.00
44988;BME280;35735;52.226;21.254;2022-09-21T20:02:23;100799.44;;;10.55;100.00
44988;BME280;35735;52.226;21.254;2022-09-21T20:07:40;100803.03;;;10.54;100.00
44988;BME280;35735;52.226;21.254;2022-09-21T20:18:19;100803.06;;;10.59;100.00
44988;BME280;35735;52.226;21.254;2022-09-21T20:23:24;100811.16;;;10.57;100.00
44988;BME280;35735;52.226;21.254;2022-09-21T20:28:25;100806.66;;;10.54;100.00
44988;BME280;35735;52.226;21.254;2022-09-21T20:33:27;100810.31;;;10.63;100.00
44988;BME280;35735;52.226;21.254;2022-09-21T20:38:29;100803.13;;;10.68;100.00
44988;BME280;35735;52.226;21.254;2022-09-21T20:43:30;100810.28;;;10.66;100.00
44988;BME280;35735;52.226;21.254;2022-09-21T20:48:30;100813.00;;;10.67;100.00
44988;BME280;35735;52.226;21.254;2022-09-21T20:53:34;100805.81;;;10.66;100.00
44988;BME280;35735;52.226;21.254;2022-09-21T20:58:34;100808.56;;;10.71;100.00
44988;BME280;35735;52.226;21.254;2022-09-21T21:03:35;100795.94;;;10.71;100.00
44988;BME280;35735;52.226;21.254;2022-09-21T21:08:36;100799.50;;;10.67;100.00
44988;BME280;35735;52.226;21.254;2022-09-21T21:13:36;100803.09;;;10.62;100.00
44988;BME280;35735;52.226;21.254;2022-09-21T21:18:38;100804.88;;;10.60;100.00
44988;BME280;35735;52.226;21.254;2022-09-21T21:23:39;100798.56;;;10.54;100.00
44988;BME280;35735;52.226;21.254;2022-09-21T21:28:40;100795.84;;;10.53;100.00
44988;BME280;35735;52.226;21.254;2022-09-21T21:33:40;100798.50;;;10.48;100.00
44988;BME280;35735;52.226;21.254;2022-09-21T21:38:41;100813.75;;;10.40;100.00
44988;BME280;35735;52.226;21.254;2022-09-21T21:43:42;100810.16;;;10.41;100.00
44988;BME280;35735;52.226;21.254;2022-09-21T21:48:42;100808.41;;;10.46;100.00
44988;BME280;35735;52.226;21.254;2022-09-21T21:53:43;100810.13;;;10.35;100.00
44988;BME280;35735;52.226;21.254;2022-09-21T21:58:44;100810.94;;;10.28;100.00
44988;BME280;35735;52.226;21.254;2022-09-21T22:03:44;100810.88;;;10.20;100.00
44988;BME280;35735;52.226;21.254;2022-09-21T22:08:45;100806.31;;;10.13;100.00
44988;BME280;35735;52.226;21.254;2022-09-21T22:13:46;100801.78;;;10.09;100.00
44988;BME280;35735;52.226;21.254;2022-09-21T22:18:47;100809.78;;;9.98;100.00
44988;BME280;35735;52.226;21.254;2022-09-21T22:23:59;100803.47;;;9.93;100.00
44988;BME280;35735;52.226;21.254;2022-09-21T22:29:02;100810.59;;;9.88;100.00
44988;BME280;35735;52.226;21.254;2022-09-21T22:34:04;100814.16;;;9.85;100.00
44988;BME280;35735;52.226;21.254;2022-09-21T22:39:06;100810.47;;;9.74;100.00
44988;BME280;35735;52.226;21.254;2022-09-21T22:44:08;100812.22;;;9.69;100.00
44988;BME280;35735;52.226;21.254;2022-09-21T22:49:09;100814.88;;;9.67;100.00
44988;BME280;35735;52.226;21.254;2022-09-21T22:54:09;100811.28;;;9.65;100.00
44988;BME280;35735;52.226;21.254;2022-09-21T22:59:10;100816.63;;;9.57;100.00
44988;BME280;35735;52.226;21.254;2022-09-21T23:04:12;100812.94;;;9.54;100.00
44988;BME280;35735;52.226;21.254;2022-09-21T23:09:15;100812.91;;;9.48;100.00
44988;BME280;35735;52.226;21.254;2022-09-21T23:14:18;100804.78;;;9.43;100.00
44988;BME280;35735;52.226;21.254;2022-09-21T23:19:19;100807.38;;;9.32;100.00
44988;BME280;35735;52.226;21.254;2022-09-21T23:24:20;100812.66;;;9.26;100.00
44988;BME280;35735;52.226;21.254;2022-09-21T23:29:20;100808.09;;;9.17;100.00
44988;BME280;35735;52.226;21.254;2022-09-21T23:34:21;100813.37;;;9.11;100.00
44988;BME280;35735;52.226;21.254;2022-09-21T23:39:21;100811.53;;;9.05;100.00
44988;BME280;35735;52.226;21.254;2022-09-21T23:44:22;100813.25;;;8.99;100.00
44988;BME280;35735;52.226;21.254;2022-09-21T23:49:23;100817.66;;;8.95;100.00
44988;BME280;35735;52.226;21.254;2022-09-21T23:54:23;100812.28;;;8.95;100.00
44988;BME280;35735;52.226;21.254;2022-09-21T23:59:24;100801.50;;;8.92;100.00
